ZSSS/SHA METAR and TAF weather

Enter ICAO airport designator
Station Type Date Time Source
ZSSS METAR 2020/07/07 00:00 UTC NOAA

ZSSS 070000Z 26004MPS 230V310 9999 BKN009 26/25 Q1004 BECMG TL0050 BKN010


Station Type Date Time Source
ZSSS Decoded METAR 2020/07/07 00:00 UTC NOAA

Shanghai / Hongqiao, China (ZSSS) 31-10N 121-26E 3M
Jul 06, 2020 - 08:00 PM EDT / 2020.07.07 0000 UTC
Wind: from the W (260 degrees) at 9 MPH (8 KT) (direction variable):0
Visibility: greater than 7 mile(s):0
Sky conditions: mostly cloudy
Temperature: 78 F (26 C)
Dew Point: 77 F (25 C)
Relative Humidity: 94%
Pressure (altimeter): 29.65 in. Hg (1004 hPa)
ob: ZSSS 070000Z 26004MPS 230V310 9999 BKN009 26/25 Q1004 BECMG TL0050 BKN010
cycle: 0

Station Type Date Time Source
ZSSS TAF 2020/07/06 18:03 UTC NOAA

TAF ZSSS 061516Z 0618/0718 22004MPS 6000 BKN015 TX30/0706Z TN23/0620Z
TEMPO 0618/0622 SHRA BKN007 FEW030CB
BECMG 0620/0622 30004MPS
BECMG 0708/0710 22004MPS

Example: see airport list